sensor_id;sensor_type;location;lat;lon;timestamp;P1;durP1;ratioP1;P2;durP2;ratioP2
75772;SDS011;64381;0.000;0.000;2023-08-01T00:01:40;3.93;;;1.30;;
75772;SDS011;64381;0.000;0.000;2023-08-01T00:04:05;3.00;;;1.20;;
75772;SDS011;64381;0.000;0.000;2023-08-01T00:06:30;3.27;;;1.37;;
75772;SDS011;64381;0.000;0.000;2023-08-01T00:08:56;3.07;;;1.20;;
75772;SDS011;64381;0.000;0.000;2023-08-01T00:11:21;2.70;;;1.10;;
75772;SDS011;64381;0.000;0.000;2023-08-01T00:13:46;2.90;;;1.20;;
75772;SDS011;64381;0.000;0.000;2023-08-01T00:16:11;3.03;;;1.20;;
75772;SDS011;64381;0.000;0.000;2023-08-01T00:18:36;3.07;;;1.33;;
75772;SDS011;64381;0.000;0.000;2023-08-01T00:21:02;2.60;;;1.00;;
75772;SDS011;64381;0.000;0.000;2023-08-01T00:23:27;3.10;;;1.20;;
75772;SDS011;64381;0.000;0.000;2023-08-01T00:25:53;2.80;;;1.10;;
75772;SDS011;64381;0.000;0.000;2023-08-01T00:28:18;3.00;;;1.20;;
75772;SDS011;64381;0.000;0.000;2023-08-01T00:30:43;2.80;;;1.10;;
75772;SDS011;64381;0.000;0.000;2023-08-01T00:33:09;2.87;;;1.20;;
75772;SDS011;64381;0.000;0.000;2023-08-01T00:35:34;2.80;;;1.27;;
75772;SDS011;64381;0.000;0.000;2023-08-01T00:37:59;2.97;;;1.30;;
75772;SDS011;64381;0.000;0.000;2023-08-01T00:40:29;2.97;;;1.10;;
75772;SDS011;64381;0.000;0.000;2023-08-01T00:42:55;2.97;;;1.20;;
75772;SDS011;64381;0.000;0.000;2023-08-01T00:45:20;2.90;;;1.30;;
75772;SDS011;64381;0.000;0.000;2023-08-01T00:47:46;3.73;;;1.30;;
75772;SDS011;64381;0.000;0.000;2023-08-01T00:50:11;2.80;;;1.30;;
75772;SDS011;64381;0.000;0.000;2023-08-01T00:52:36;2.80;;;1.30;;
75772;SDS011;64381;0.000;0.000;2023-08-01T00:55:01;3.00;;;1.20;;
75772;SDS011;64381;0.000;0.000;2023-08-01T00:57:27;3.10;;;1.30;;
75772;SDS011;64381;0.000;0.000;2023-08-01T00:59:52;2.80;;;1.27;;
75772;SDS011;64381;0.000;0.000;2023-08-01T01:02:18;3.63;;;1.30;;
75772;SDS011;64381;0.000;0.000;2023-08-01T01:04:43;3.00;;;1.27;;
75772;SDS011;64381;0.000;0.000;2023-08-01T01:07:08;3.23;;;1.40;;
75772;SDS011;64381;0.000;0.000;2023-08-01T01:09:34;3.03;;;1.10;;
75772;SDS011;64381;0.000;0.000;2023-08-01T01:11:59;3.03;;;1.30;;
75772;SDS011;64381;0.000;0.000;2023-08-01T01:14:28;2.88;;;1.10;;
75772;SDS011;64381;0.000;0.000;2023-08-01T01:16:54;2.83;;;1.20;;
75772;SDS011;64381;0.000;0.000;2023-08-01T01:19:19;3.00;;;1.40;;
75772;SDS011;64381;0.000;0.000;2023-08-01T01:21:45;2.90;;;1.17;;
75772;SDS011;64381;0.000;0.000;2023-08-01T01:24:11;2.90;;;1.30;;
75772;SDS011;64381;0.000;0.000;2023-08-01T01:26:38;2.78;;;1.30;;
75772;SDS011;64381;0.000;0.000;2023-08-01T01:29:05;2.80;;;1.30;;
75772;SDS011;64381;0.000;0.000;2023-08-01T01:31:33;3.37;;;1.17;;
75772;SDS011;64381;0.000;0.000;2023-08-01T01:34:00;2.80;;;1.15;;
75772;SDS011;64381;0.000;0.000;2023-08-01T01:36:26;3.10;;;1.20;;
75772;SDS011;64381;0.000;0.000;2023-08-01T01:38:51;3.07;;;1.30;;
75772;SDS011;64381;0.000;0.000;2023-08-01T01:41:17;3.27;;;1.20;;
75772;SDS011;64381;0.000;0.000;2023-08-01T01:43:42;3.37;;;1.20;;
75772;SDS011;64381;0.000;0.000;2023-08-01T01:46:07;2.80;;;1.10;;
75772;SDS011;64381;0.000;0.000;2023-08-01T01:48:32;3.20;;;1.17;;
75772;SDS011;64381;0.000;0.000;2023-08-01T01:50:58;2.93;;;1.17;;
75772;SDS011;64381;0.000;0.000;2023-08-01T01:53:23;2.90;;;1.20;;
75772;SDS011;64381;0.000;0.000;2023-08-01T01:55:48;2.97;;;1.20;;
75772;SDS011;64381;0.000;0.000;2023-08-01T01:58:13;3.60;;;1.30;;
75772;SDS011;64381;0.000;0.000;2023-08-01T02:00:38;2.87;;;1.30;;
75772;SDS011;64381;0.000;0.000;2023-08-01T02:03:04;2.80;;;1.30;;
75772;SDS011;64381;0.000;0.000;2023-08-01T02:05:29;3.30;;;1.40;;
75772;SDS011;64381;0.000;0.000;2023-08-01T02:07:55;3.00;;;1.30;;
75772;SDS011;64381;0.000;0.000;2023-08-01T02:10:20;2.63;;;1.13;;
75772;SDS011;64381;0.000;0.000;2023-08-01T02:12:45;3.00;;;1.40;;
75772;SDS011;64381;0.000;0.000;2023-08-01T02:15:11;3.40;;;1.50;;
75772;SDS011;64381;0.000;0.000;2023-08-01T02:17:36;3.10;;;1.50;;
75772;SDS011;64381;0.000;0.000;2023-08-01T02:20:01;3.00;;;1.30;;
75772;SDS011;64381;0.000;0.000;2023-08-01T02:22:26;3.03;;;1.40;;
75772;SDS011;64381;0.000;0.000;2023-08-01T02:24:52;2.80;;;1.20;;
75772;SDS011;64381;0.000;0.000;2023-08-01T02:27:17;3.00;;;1.40;;
75772;SDS011;64381;0.000;0.000;2023-08-01T02:29:42;3.10;;;1.23;;
75772;SDS011;64381;0.000;0.000;2023-08-01T02:32:07;4.03;;;1.40;;
75772;SDS011;64381;0.000;0.000;2023-08-01T02:34:33;3.27;;;1.30;;
75772;SDS011;64381;0.000;0.000;2023-08-01T02:36:58;3.07;;;1.30;;
75772;SDS011;64381;0.000;0.000;2023-08-01T02:39:23;2.97;;;1.40;;
75772;SDS011;64381;0.000;0.000;2023-08-01T02:41:48;3.00;;;1.30;;
75772;SDS011;64381;0.000;0.000;2023-08-01T02:44:13;3.63;;;1.43;;
75772;SDS011;64381;0.000;0.000;2023-08-01T02:46:39;3.00;;;1.20;;
75772;SDS011;64381;0.000;0.000;2023-08-01T02:49:04;3.20;;;1.57;;
75772;SDS011;64381;0.000;0.000;2023-08-01T02:51:29;3.23;;;1.70;;
75772;SDS011;64381;0.000;0.000;2023-08-01T02:53:54;2.87;;;1.23;;
75772;SDS011;64381;0.000;0.000;2023-08-01T02:56:19;3.00;;;1.40;;
75772;SDS011;64381;0.000;0.000;2023-08-01T02:58:45;3.10;;;1.40;;
75772;SDS011;64381;0.000;0.000;2023-08-01T03:01:10;3.50;;;1.57;;
75772;SDS011;64381;0.000;0.000;2023-08-01T03:03:35;2.93;;;1.20;;
75772;SDS011;64381;0.000;0.000;2023-08-01T03:06:01;3.22;;;1.30;;
75772;SDS011;64381;0.000;0.000;2023-08-01T03:08:27;2.90;;;1.40;;
75772;SDS011;64381;0.000;0.000;2023-08-01T03:10:53;3.20;;;1.37;;
75772;SDS011;64381;0.000;0.000;2023-08-01T03:13:18;3.15;;;1.45;;
75772;SDS011;64381;0.000;0.000;2023-08-01T03:15:44;3.10;;;1.30;;
75772;SDS011;64381;0.000;0.000;2023-08-01T03:18:09;2.80;;;1.30;;
75772;SDS011;64381;0.000;0.000;2023-08-01T03:20:34;3.00;;;1.30;;
75772;SDS011;64381;0.000;0.000;2023-08-01T03:22:59;2.93;;;1.33;;
75772;SDS011;64381;0.000;0.000;2023-08-01T03:25:24;3.57;;;1.20;;
75772;SDS011;64381;0.000;0.000;2023-08-01T03:27:50;3.03;;;1.47;;
75772;SDS011;64381;0.000;0.000;2023-08-01T03:30:15;3.40;;;1.40;;
75772;SDS011;64381;0.000;0.000;2023-08-01T03:32:40;3.10;;;1.33;;
75772;SDS011;64381;0.000;0.000;2023-08-01T03:35:05;2.90;;;1.40;;
75772;SDS011;64381;0.000;0.000;2023-08-01T03:37:31;3.42;;;1.30;;
75772;SDS011;64381;0.000;0.000;2023-08-01T03:39:56;2.97;;;1.30;;
75772;SDS011;64381;0.000;0.000;2023-08-01T03:42:22;3.17;;;1.40;;
75772;SDS011;64381;0.000;0.000;2023-08-01T03:44:47;3.03;;;1.37;;
75772;SDS011;64381;0.000;0.000;2023-08-01T03:47:12;3.20;;;1.40;;
75772;SDS011;64381;0.000;0.000;2023-08-01T03:49:37;3.17;;;1.43;;
75772;SDS011;64381;0.000;0.000;2023-08-01T03:52:02;3.10;;;1.50;;
75772;SDS011;64381;0.000;0.000;2023-08-01T03:54:28;2.90;;;1.40;;
75772;SDS011;64381;0.000;0.000;2023-08-01T03:56:53;3.17;;;1.30;;
75772;SDS011;64381;0.000;0.000;2023-08-01T03:59:18;3.80;;;1.30;;
75772;SDS011;64381;0.000;0.000;2023-08-01T04:01:44;3.07;;;1.50;;
75772;SDS011;64381;0.000;0.000;2023-08-01T04:04:09;3.03;;;1.30;;
75772;SDS011;64381;0.000;0.000;2023-08-01T04:06:35;2.80;;;1.30;;
75772;SDS011;64381;0.000;0.000;2023-08-01T04:09:00;3.13;;;1.43;;
75772;SDS011;64381;0.000;0.000;2023-08-01T04:11:25;3.30;;;1.40;;
75772;SDS011;64381;0.000;0.000;2023-08-01T04:13:51;2.90;;;1.30;;
75772;SDS011;64381;0.000;0.000;2023-08-01T04:16:16;3.00;;;1.25;;
75772;SDS011;64381;0.000;0.000;2023-08-01T04:18:42;2.93;;;1.33;;
75772;SDS011;64381;0.000;0.000;2023-08-01T04:21:07;3.47;;;1.40;;
75772;SDS011;64381;0.000;0.000;2023-08-01T04:23:33;3.10;;;1.30;;
75772;SDS011;64381;0.000;0.000;2023-08-01T04:25:58;2.97;;;1.30;;
75772;SDS011;64381;0.000;0.000;2023-08-01T04:28:23;3.07;;;1.47;;
75772;SDS011;64381;0.000;0.000;2023-08-01T04:30:52;3.40;;;1.60;;
75772;SDS011;64381;0.000;0.000;2023-08-01T04:33:17;3.33;;;1.30;;
75772;SDS011;64381;0.000;0.000;2023-08-01T04:35:43;3.22;;;1.40;;
75772;SDS011;64381;0.000;0.000;2023-08-01T04:38:08;3.23;;;1.43;;
75772;SDS011;64381;0.000;0.000;2023-08-01T04:40:34;3.47;;;1.60;;
75772;SDS011;64381;0.000;0.000;2023-08-01T04:43:00;3.13;;;1.40;;
75772;SDS011;64381;0.000;0.000;2023-08-01T04:45:26;3.00;;;1.30;;
75772;SDS011;64381;0.000;0.000;2023-08-01T04:47:51;2.83;;;1.37;;
75772;SDS011;64381;0.000;0.000;2023-08-01T04:50:16;3.00;;;1.40;;
75772;SDS011;64381;0.000;0.000;2023-08-01T04:52:42;3.13;;;1.40;;
75772;SDS011;64381;0.000;0.000;2023-08-01T04:55:07;3.33;;;1.50;;
75772;SDS011;64381;0.000;0.000;2023-08-01T04:57:32;3.00;;;1.40;;
75772;SDS011;64381;0.000;0.000;2023-08-01T04:59:58;3.33;;;1.50;;
75772;SDS011;64381;0.000;0.000;2023-08-01T05:02:23;3.07;;;1.40;;
75772;SDS011;64381;0.000;0.000;2023-08-01T05:04:48;3.40;;;1.40;;
75772;SDS011;64381;0.000;0.000;2023-08-01T05:07:13;3.20;;;1.57;;
75772;SDS011;64381;0.000;0.000;2023-08-01T05:09:39;3.20;;;1.30;;
75772;SDS011;64381;0.000;0.000;2023-08-01T05:12:04;3.10;;;1.40;;
75772;SDS011;64381;0.000;0.000;2023-08-01T05:14:30;3.27;;;1.50;;
75772;SDS011;64381;0.000;0.000;2023-08-01T05:16:55;3.00;;;1.20;;
75772;SDS011;64381;0.000;0.000;2023-08-01T05:19:20;3.20;;;1.40;;
75772;SDS011;64381;0.000;0.000;2023-08-01T05:21:45;3.03;;;1.33;;
75772;SDS011;64381;0.000;0.000;2023-08-01T05:24:10;3.10;;;1.40;;
75772;SDS011;64381;0.000;0.000;2023-08-01T05:26:36;3.23;;;1.33;;
75772;SDS011;64381;0.000;0.000;2023-08-01T05:29:01;2.95;;;1.40;;
75772;SDS011;64381;0.000;0.000;2023-08-01T05:31:26;3.20;;;1.47;;
75772;SDS011;64381;0.000;0.000;2023-08-01T05:33:51;3.20;;;1.40;;
75772;SDS011;64381;0.000;0.000;2023-08-01T05:36:17;3.13;;;1.30;;
75772;SDS011;64381;0.000;0.000;2023-08-01T05:38:42;3.00;;;1.50;;
75772;SDS011;64381;0.000;0.000;2023-08-01T05:41:07;3.37;;;1.50;;
75772;SDS011;64381;0.000;0.000;2023-08-01T05:43:32;3.37;;;1.20;;
75772;SDS011;64381;0.000;0.000;2023-08-01T05:45:57;4.17;;;1.50;;
75772;SDS011;64381;0.000;0.000;2023-08-01T05:48:23;3.47;;;1.40;;
75772;SDS011;64381;0.000;0.000;2023-08-01T05:50:48;3.23;;;1.50;;
75772;SDS011;64381;0.000;0.000;2023-08-01T05:53:13;3.20;;;1.50;;
75772;SDS011;64381;0.000;0.000;2023-08-01T05:55:38;3.20;;;1.47;;
75772;SDS011;64381;0.000;0.000;2023-08-01T05:58:03;3.03;;;1.40;;
75772;SDS011;64381;0.000;0.000;2023-08-01T06:00:29;3.13;;;1.40;;
75772;SDS011;64381;0.000;0.000;2023-08-01T06:02:54;3.40;;;1.50;;
75772;SDS011;64381;0.000;0.000;2023-08-01T06:05:19;3.43;;;1.40;;
75772;SDS011;64381;0.000;0.000;2023-08-01T06:07:44;3.63;;;1.50;;
75772;SDS011;64381;0.000;0.000;2023-08-01T06:10:10;3.10;;;1.50;;
75772;SDS011;64381;0.000;0.000;2023-08-01T06:12:35;3.47;;;1.40;;
75772;SDS011;64381;0.000;0.000;2023-08-01T06:15:00;3.20;;;1.50;;
75772;SDS011;64381;0.000;0.000;2023-08-01T06:17:25;3.33;;;1.60;;
75772;SDS011;64381;0.000;0.000;2023-08-01T06:19:51;3.27;;;1.60;;
75772;SDS011;64381;0.000;0.000;2023-08-01T06:22:16;3.30;;;1.40;;
75772;SDS011;64381;0.000;0.000;2023-08-01T06:24:41;3.53;;;1.57;;
75772;SDS011;64381;0.000;0.000;2023-08-01T06:27:06;4.10;;;1.43;;
75772;SDS011;64381;0.000;0.000;2023-08-01T06:29:31;3.33;;;1.60;;
75772;SDS011;64381;0.000;0.000;2023-08-01T06:31:57;3.33;;;1.57;;
75772;SDS011;64381;0.000;0.000;2023-08-01T06:34:22;3.73;;;1.50;;
75772;SDS011;64381;0.000;0.000;2023-08-01T06:36:47;3.53;;;1.60;;
75772;SDS011;64381;0.000;0.000;2023-08-01T06:39:12;3.73;;;1.70;;
75772;SDS011;64381;0.000;0.000;2023-08-01T06:41:38;3.90;;;1.50;;
75772;SDS011;64381;0.000;0.000;2023-08-01T06:44:03;3.73;;;1.30;;
75772;SDS011;64381;0.000;0.000;2023-08-01T06:46:28;3.90;;;1.40;;
75772;SDS011;64381;0.000;0.000;2023-08-01T06:48:53;3.53;;;1.60;;
75772;SDS011;64381;0.000;0.000;2023-08-01T06:51:18;3.63;;;1.60;;
75772;SDS011;64381;0.000;0.000;2023-08-01T06:53:44;3.43;;;1.70;;
75772;SDS011;64381;0.000;0.000;2023-08-01T06:56:09;3.30;;;1.50;;
75772;SDS011;64381;0.000;0.000;2023-08-01T06:58:34;3.30;;;1.67;;
75772;SDS011;64381;0.000;0.000;2023-08-01T07:00:59;3.90;;;1.70;;
75772;SDS011;64381;0.000;0.000;2023-08-01T07:03:25;3.50;;;1.47;;
75772;SDS011;64381;0.000;0.000;2023-08-01T07:05:50;3.77;;;1.50;;
75772;SDS011;64381;0.000;0.000;2023-08-01T07:08:16;3.72;;;1.63;;
75772;SDS011;64381;0.000;0.000;2023-08-01T07:10:41;3.80;;;1.70;;
75772;SDS011;64381;0.000;0.000;2023-08-01T07:13:06;3.37;;;1.57;;
75772;SDS011;64381;0.000;0.000;2023-08-01T07:15:32;4.60;;;2.00;;
75772;SDS011;64381;0.000;0.000;2023-08-01T07:17:57;3.13;;;1.53;;
75772;SDS011;64381;0.000;0.000;2023-08-01T07:20:22;3.60;;;1.70;;
75772;SDS011;64381;0.000;0.000;2023-08-01T07:22:48;3.50;;;1.47;;
75772;SDS011;64381;0.000;0.000;2023-08-01T07:25:13;3.30;;;1.40;;
75772;SDS011;64381;0.000;0.000;2023-08-01T07:27:38;3.50;;;1.60;;
75772;SDS011;64381;0.000;0.000;2023-08-01T07:30:04;3.40;;;1.60;;
75772;SDS011;64381;0.000;0.000;2023-08-01T07:32:30;3.17;;;1.40;;
75772;SDS011;64381;0.000;0.000;2023-08-01T07:34:55;4.37;;;1.50;;
75772;SDS011;64381;0.000;0.000;2023-08-01T07:37:20;3.30;;;1.50;;
75772;SDS011;64381;0.000;0.000;2023-08-01T07:39:46;3.40;;;1.60;;
75772;SDS011;64381;0.000;0.000;2023-08-01T07:42:11;3.97;;;1.60;;
75772;SDS011;64381;0.000;0.000;2023-08-01T07:44:36;3.53;;;1.70;;
75772;SDS011;64381;0.000;0.000;2023-08-01T07:47:01;3.53;;;1.77;;
75772;SDS011;64381;0.000;0.000;2023-08-01T07:49:27;3.53;;;1.60;;
75772;SDS011;64381;0.000;0.000;2023-08-01T07:51:52;3.40;;;1.47;;
75772;SDS011;64381;0.000;0.000;2023-08-01T07:54:17;3.67;;;1.60;;
75772;SDS011;64381;0.000;0.000;2023-08-01T07:56:42;3.80;;;1.60;;
75772;SDS011;64381;0.000;0.000;2023-08-01T07:59:08;3.67;;;1.70;;
75772;SDS011;64381;0.000;0.000;2023-08-01T08:01:33;3.63;;;1.60;;
75772;SDS011;64381;0.000;0.000;2023-08-01T08:03:58;3.53;;;1.53;;
75772;SDS011;64381;0.000;0.000;2023-08-01T08:06:23;3.40;;;1.50;;
75772;SDS011;64381;0.000;0.000;2023-08-01T08:08:48;3.83;;;1.67;;
75772;SDS011;64381;0.000;0.000;2023-08-01T08:11:14;3.27;;;1.70;;
75772;SDS011;64381;0.000;0.000;2023-08-01T08:13:39;4.43;;;1.80;;
75772;SDS011;64381;0.000;0.000;2023-08-01T08:16:04;3.17;;;1.50;;
75772;SDS011;64381;0.000;0.000;2023-08-01T08:18:29;3.20;;;1.50;;
75772;SDS011;64381;0.000;0.000;2023-08-01T08:20:55;3.73;;;1.70;;
75772;SDS011;64381;0.000;0.000;2023-08-01T08:23:20;4.00;;;1.70;;
75772;SDS011;64381;0.000;0.000;2023-08-01T08:25:45;3.30;;;1.90;;
75772;SDS011;64381;0.000;0.000;2023-08-01T08:28:11;3.90;;;1.57;;
75772;SDS011;64381;0.000;0.000;2023-08-01T08:30:37;3.57;;;1.60;;
75772;SDS011;64381;0.000;0.000;2023-08-01T08:33:02;3.93;;;1.73;;
75772;SDS011;64381;0.000;0.000;2023-08-01T08:35:28;4.43;;;1.80;;
75772;SDS011;64381;0.000;0.000;2023-08-01T08:37:53;3.70;;;1.60;;
75772;SDS011;64381;0.000;0.000;2023-08-01T08:40:19;3.57;;;1.60;;
75772;SDS011;64381;0.000;0.000;2023-08-01T08:42:44;3.50;;;1.60;;
75772;SDS011;64381;0.000;0.000;2023-08-01T08:45:10;3.63;;;1.80;;
75772;SDS011;64381;0.000;0.000;2023-08-01T08:47:38;3.25;;;1.45;;
75772;SDS011;64381;0.000;0.000;2023-08-01T08:50:07;3.45;;;1.60;;
75772;SDS011;64381;0.000;0.000;2023-08-01T08:52:33;3.20;;;1.40;;
75772;SDS011;64381;0.000;0.000;2023-08-01T08:54:59;3.85;;;1.50;;
75772;SDS011;64381;0.000;0.000;2023-08-01T08:57:25;3.47;;;1.52;;
75772;SDS011;64381;0.000;0.000;2023-08-01T08:59:52;3.70;;;1.60;;
75772;SDS011;64381;0.000;0.000;2023-08-01T09:02:17;4.00;;;1.40;;
75772;SDS011;64381;0.000;0.000;2023-08-01T09:04:43;3.30;;;1.40;;
75772;SDS011;64381;0.000;0.000;2023-08-01T09:07:09;3.37;;;1.50;;
75772;SDS011;64381;0.000;0.000;2023-08-01T09:09:35;3.60;;;1.60;;
75772;SDS011;64381;0.000;0.000;2023-08-01T09:12:01;3.23;;;1.50;;
75772;SDS011;64381;0.000;0.000;2023-08-01T09:14:26;3.53;;;1.60;;
75772;SDS011;64381;0.000;0.000;2023-08-01T09:16:51;3.60;;;1.50;;
75772;SDS011;64381;0.000;0.000;2023-08-01T09:19:21;3.80;;;1.60;;
75772;SDS011;64381;0.000;0.000;2023-08-01T09:21:48;3.63;;;1.40;;
75772;SDS011;64381;0.000;0.000;2023-08-01T09:24:15;4.15;;;1.55;;
75772;SDS011;64381;0.000;0.000;2023-08-01T09:26:45;3.83;;;1.75;;
75772;SDS011;64381;0.000;0.000;2023-08-01T09:29:11;3.85;;;1.70;;
75772;SDS011;64381;0.000;0.000;2023-08-01T09:31:40;3.90;;;1.80;;
75772;SDS011;64381;0.000;0.000;2023-08-01T09:34:17;3.42;;;1.63;;
75772;SDS011;64381;0.000;0.000;2023-08-01T09:36:43;3.70;;;1.60;;
75772;SDS011;64381;0.000;0.000;2023-08-01T09:39:08;3.33;;;1.60;;
75772;SDS011;64381;0.000;0.000;2023-08-01T09:41:40;3.40;;;1.50;;
75772;SDS011;64381;0.000;0.000;2023-08-01T09:44:05;3.53;;;1.50;;
75772;SDS011;64381;0.000;0.000;2023-08-01T09:46:30;3.30;;;1.60;;
75772;SDS011;64381;0.000;0.000;2023-08-01T09:49:05;3.67;;;1.67;;
75772;SDS011;64381;0.000;0.000;2023-08-01T09:51:31;3.80;;;1.67;;
75772;SDS011;64381;0.000;0.000;2023-08-01T09:53:56;3.80;;;1.83;;
75772;SDS011;64381;0.000;0.000;2023-08-01T09:56:22;3.80;;;1.67;;
75772;SDS011;64381;0.000;0.000;2023-08-01T09:58:50;4.25;;;2.00;;
75772;SDS011;64381;0.000;0.000;2023-08-01T10:01:18;3.92;;;1.77;;
75772;SDS011;64381;0.000;0.000;2023-08-01T10:03:49;3.85;;;1.60;;
75772;SDS011;64381;0.000;0.000;2023-08-01T10:06:19;3.55;;;1.70;;
75772;SDS011;64381;0.000;0.000;2023-08-01T10:08:49;3.80;;;1.73;;
75772;SDS011;64381;0.000;0.000;2023-08-01T10:11:16;3.50;;;1.70;;
75772;SDS011;64381;0.000;0.000;2023-08-01T10:13:45;4.03;;;1.60;;
75772;SDS011;64381;0.000;0.000;2023-08-01T10:16:12;4.03;;;1.80;;
75772;SDS011;64381;0.000;0.000;2023-08-01T10:18:38;4.03;;;1.80;;
75772;SDS011;64381;0.000;0.000;2023-08-01T10:21:05;3.92;;;1.75;;
75772;SDS011;64381;0.000;0.000;2023-08-01T10:23:34;3.60;;;1.60;;
75772;SDS011;64381;0.000;0.000;2023-08-01T10:26:00;3.90;;;1.60;;
75772;SDS011;64381;0.000;0.000;2023-08-01T10:28:32;3.95;;;1.70;;
75772;SDS011;64381;0.000;0.000;2023-08-01T10:31:12;4.00;;;1.85;;
75772;SDS011;64381;0.000;0.000;2023-08-01T10:33:39;3.67;;;1.70;;
75772;SDS011;64381;0.000;0.000;2023-08-01T10:36:12;3.70;;;1.70;;
75772;SDS011;64381;0.000;0.000;2023-08-01T10:38:44;3.57;;;1.70;;
75772;SDS011;64381;0.000;0.000;2023-08-01T10:41:27;3.70;;;1.63;;
75772;SDS011;64381;0.000;0.000;2023-08-01T10:44:10;4.03;;;1.73;;
75772;SDS011;64381;0.000;0.000;2023-08-01T10:46:46;3.50;;;1.63;;
75772;SDS011;64381;0.000;0.000;2023-08-01T10:49:16;3.63;;;1.70;;
75772;SDS011;64381;0.000;0.000;2023-08-01T10:51:43;3.33;;;1.70;;
75772;SDS011;64381;0.000;0.000;2023-08-01T10:54:21;3.83;;;1.65;;
75772;SDS011;64381;0.000;0.000;2023-08-01T10:56:48;3.35;;;1.75;;
75772;SDS011;64381;0.000;0.000;2023-08-01T10:59:15;3.95;;;1.77;;
75772;SDS011;64381;0.000;0.000;2023-08-01T11:01:48;3.60;;;1.60;;
75772;SDS011;64381;0.000;0.000;2023-08-01T11:04:15;3.80;;;1.70;;
75772;SDS011;64381;0.000;0.000;2023-08-01T11:06:42;4.07;;;1.80;;
75772;SDS011;64381;0.000;0.000;2023-08-01T11:09:15;3.92;;;1.60;;
75772;SDS011;64381;0.000;0.000;2023-08-01T11:11:41;3.50;;;1.60;;
75772;SDS011;64381;0.000;0.000;2023-08-01T11:14:06;4.37;;;1.80;;
75772;SDS011;64381;0.000;0.000;2023-08-01T11:16:32;3.70;;;1.60;;
75772;SDS011;64381;0.000;0.000;2023-08-01T11:18:57;3.50;;;1.50;;
75772;SDS011;64381;0.000;0.000;2023-08-01T11:21:26;4.37;;;1.70;;
75772;SDS011;64381;0.000;0.000;2023-08-01T11:23:51;3.40;;;1.70;;
75772;SDS011;64381;0.000;0.000;2023-08-01T11:26:17;3.63;;;1.60;;
75772;SDS011;64381;0.000;0.000;2023-08-01T11:28:42;3.80;;;1.73;;
75772;SDS011;64381;0.000;0.000;2023-08-01T11:31:13;3.47;;;1.60;;
75772;SDS011;64381;0.000;0.000;2023-08-01T11:33:38;4.13;;;1.73;;
75772;SDS011;64381;0.000;0.000;2023-08-01T11:36:04;4.73;;;1.80;;
75772;SDS011;64381;0.000;0.000;2023-08-01T11:38:30;4.00;;;1.90;;
75772;SDS011;64381;0.000;0.000;2023-08-01T11:40:57;4.13;;;1.90;;
75772;SDS011;64381;0.000;0.000;2023-08-01T11:43:23;3.97;;;1.95;;
75772;SDS011;64381;0.000;0.000;2023-08-01T11:45:49;3.70;;;1.60;;
75772;SDS011;64381;0.000;0.000;2023-08-01T11:48:15;4.15;;;1.73;;
75772;SDS011;64381;0.000;0.000;2023-08-01T11:50:41;4.53;;;2.03;;
75772;SDS011;64381;0.000;0.000;2023-08-01T11:53:06;4.93;;;2.17;;
75772;SDS011;64381;0.000;0.000;2023-08-01T11:55:42;3.72;;;1.90;;
75772;SDS011;64381;0.000;0.000;2023-08-01T11:58:08;4.57;;;2.10;;
75772;SDS011;64381;0.000;0.000;2023-08-01T12:00:33;4.07;;;1.70;;
75772;SDS011;64381;0.000;0.000;2023-08-01T12:03:08;4.07;;;1.87;;
75772;SDS011;64381;0.000;0.000;2023-08-01T12:05:34;4.30;;;1.98;;
75772;SDS011;64381;0.000;0.000;2023-08-01T12:08:10;3.87;;;1.73;;
75772;SDS011;64381;0.000;0.000;2023-08-01T12:10:37;3.83;;;1.90;;
75772;SDS011;64381;0.000;0.000;2023-08-01T12:13:03;4.05;;;1.85;;
75772;SDS011;64381;0.000;0.000;2023-08-01T12:15:28;4.57;;;2.20;;
75772;SDS011;64381;0.000;0.000;2023-08-01T12:17:53;3.47;;;1.70;;
75772;SDS011;64381;0.000;0.000;2023-08-01T12:20:19;3.87;;;1.70;;
75772;SDS011;64381;0.000;0.000;2023-08-01T12:22:44;3.63;;;1.83;;
75772;SDS011;64381;0.000;0.000;2023-08-01T12:25:09;4.17;;;2.00;;
75772;SDS011;64381;0.000;0.000;2023-08-01T12:27:34;3.67;;;1.80;;
75772;SDS011;64381;0.000;0.000;2023-08-01T12:29:59;4.23;;;1.83;;
75772;SDS011;64381;0.000;0.000;2023-08-01T12:32:25;4.50;;;1.93;;
75772;SDS011;64381;0.000;0.000;2023-08-01T12:34:50;4.10;;;1.90;;
75772;SDS011;64381;0.000;0.000;2023-08-01T12:37:15;3.93;;;1.67;;
75772;SDS011;64381;0.000;0.000;2023-08-01T12:39:40;4.10;;;1.73;;
75772;SDS011;64381;0.000;0.000;2023-08-01T12:42:05;4.00;;;1.80;;
75772;SDS011;64381;0.000;0.000;2023-08-01T12:44:31;4.07;;;1.80;;
75772;SDS011;64381;0.000;0.000;2023-08-01T12:46:56;3.90;;;1.83;;
75772;SDS011;64381;0.000;0.000;2023-08-01T12:49:21;3.83;;;1.83;;
75772;SDS011;64381;0.000;0.000;2023-08-01T12:51:46;3.80;;;1.70;;
75772;SDS011;64381;0.000;0.000;2023-08-01T12:54:12;4.20;;;1.83;;
75772;SDS011;64381;0.000;0.000;2023-08-01T12:56:37;3.83;;;1.83;;
75772;SDS011;64381;0.000;0.000;2023-08-01T12:59:02;4.67;;;2.00;;
75772;SDS011;64381;0.000;0.000;2023-08-01T13:01:27;3.93;;;1.60;;
75772;SDS011;64381;0.000;0.000;2023-08-01T13:03:53;4.43;;;1.97;;
75772;SDS011;64381;0.000;0.000;2023-08-01T13:06:18;4.20;;;2.10;;
75772;SDS011;64381;0.000;0.000;2023-08-01T13:08:43;4.43;;;1.97;;
75772;SDS011;64381;0.000;0.000;2023-08-01T13:11:12;4.00;;;1.70;;
75772;SDS011;64381;0.000;0.000;2023-08-01T13:13:38;4.35;;;2.08;;
75772;SDS011;64381;0.000;0.000;2023-08-01T13:16:04;3.90;;;1.80;;
75772;SDS011;64381;0.000;0.000;2023-08-01T13:18:30;4.03;;;1.73;;
75772;SDS011;64381;0.000;0.000;2023-08-01T13:20:56;3.87;;;1.70;;
75772;SDS011;64381;0.000;0.000;2023-08-01T13:23:22;4.05;;;1.80;;
75772;SDS011;64381;0.000;0.000;2023-08-01T13:25:48;4.07;;;1.83;;
75772;SDS011;64381;0.000;0.000;2023-08-01T13:28:14;4.03;;;1.90;;
75772;SDS011;64381;0.000;0.000;2023-08-01T13:30:39;3.77;;;1.70;;
75772;SDS011;64381;0.000;0.000;2023-08-01T13:33:04;3.60;;;1.80;;
75772;SDS011;64381;0.000;0.000;2023-08-01T13:35:29;4.00;;;1.70;;
75772;SDS011;64381;0.000;0.000;2023-08-01T13:37:55;3.63;;;1.70;;
75772;SDS011;64381;0.000;0.000;2023-08-01T13:40:20;4.37;;;1.87;;
75772;SDS011;64381;0.000;0.000;2023-08-01T13:42:45;3.80;;;1.63;;
75772;SDS011;64381;0.000;0.000;2023-08-01T13:45:10;4.20;;;1.80;;
75772;SDS011;64381;0.000;0.000;2023-08-01T13:47:35;4.53;;;1.73;;
75772;SDS011;64381;0.000;0.000;2023-08-01T13:50:01;3.47;;;1.40;;
75772;SDS011;64381;0.000;0.000;2023-08-01T13:52:26;3.57;;;1.77;;
75772;SDS011;64381;0.000;0.000;2023-08-01T13:54:51;3.47;;;1.60;;
75772;SDS011;64381;0.000;0.000;2023-08-01T13:57:17;4.60;;;1.73;;
75772;SDS011;64381;0.000;0.000;2023-08-01T13:59:42;3.90;;;1.80;;
75772;SDS011;64381;0.000;0.000;2023-08-01T14:02:07;4.07;;;1.87;;
75772;SDS011;64381;0.000;0.000;2023-08-01T14:04:32;4.43;;;1.80;;
75772;SDS011;64381;0.000;0.000;2023-08-01T14:06:58;3.50;;;1.60;;
75772;SDS011;64381;0.000;0.000;2023-08-01T14:09:23;4.47;;;1.70;;
75772;SDS011;64381;0.000;0.000;2023-08-01T14:11:48;4.00;;;2.00;;
75772;SDS011;64381;0.000;0.000;2023-08-01T14:14:13;3.40;;;1.57;;
75772;SDS011;64381;0.000;0.000;2023-08-01T14:16:38;4.13;;;1.70;;
75772;SDS011;64381;0.000;0.000;2023-08-01T14:19:04;4.20;;;1.90;;
75772;SDS011;64381;0.000;0.000;2023-08-01T14:21:29;4.00;;;1.90;;
75772;SDS011;64381;0.000;0.000;2023-08-01T14:23:54;4.53;;;1.87;;
75772;SDS011;64381;0.000;0.000;2023-08-01T14:26:19;3.70;;;1.80;;
75772;SDS011;64381;0.000;0.000;2023-08-01T14:28:45;3.93;;;1.87;;
75772;SDS011;64381;0.000;0.000;2023-08-01T14:31:10;4.30;;;1.80;;
75772;SDS011;64381;0.000;0.000;2023-08-01T14:33:36;3.50;;;1.63;;
75772;SDS011;64381;0.000;0.000;2023-08-01T14:36:01;4.60;;;1.70;;
75772;SDS011;64381;0.000;0.000;2023-08-01T14:38:26;3.90;;;1.63;;
75772;SDS011;64381;0.000;0.000;2023-08-01T14:40:52;3.37;;;1.60;;
75772;SDS011;64381;0.000;0.000;2023-08-01T14:43:18;3.60;;;1.60;;
75772;SDS011;64381;0.000;0.000;2023-08-01T14:45:43;3.57;;;1.73;;
75772;SDS011;64381;0.000;0.000;2023-08-01T14:48:08;3.80;;;1.93;;
75772;SDS011;64381;0.000;0.000;2023-08-01T14:50:34;3.70;;;1.80;;
75772;SDS011;64381;0.000;0.000;2023-08-01T14:53:00;3.60;;;1.60;;